createdAt,value
2018-09-13T00:00:38.987Z,12.67
2018-09-13T00:03:07.686Z,10.90
2018-09-13T00:05:36.183Z,12.40
2018-09-13T00:08:04.663Z,15.50
2018-09-13T00:10:33.153Z,11.47
2018-09-13T00:13:01.584Z,12.17
2018-09-13T00:15:30.061Z,10.93
2018-09-13T00:17:58.589Z,12.23
2018-09-13T00:20:27.126Z,12.90
2018-09-13T00:22:55.599Z,15.73
2018-09-13T00:25:24.073Z,11.03
2018-09-13T00:27:52.596Z,11.23
2018-09-13T00:30:21.052Z,12.30
2018-09-13T00:32:49.533Z,12.63
2018-09-13T00:35:17.981Z,11.43
2018-09-13T00:37:46.482Z,14.03
2018-09-13T00:40:15.044Z,12.43
2018-09-13T00:42:43.552Z,12.63
2018-09-13T00:45:12.054Z,12.00
2018-09-13T00:47:43.908Z,10.23
2018-09-13T00:50:13.396Z,10.67
2018-09-13T00:52:41.879Z,12.70
2018-09-13T00:55:10.556Z,11.30
2018-09-13T00:57:39.056Z,12.83
2018-09-13T01:00:07.943Z,10.97
2018-09-13T01:02:36.806Z,11.33
2018-09-13T01:05:05.321Z,12.97
2018-09-13T01:07:33.984Z,15.03
2018-09-13T01:10:02.483Z,10.53
2018-09-13T01:12:30.932Z,10.40
2018-09-13T01:14:59.433Z,12.10
2018-09-13T01:17:27.907Z,11.70
2018-09-13T01:19:56.460Z,9.57
2018-09-13T01:22:24.952Z,11.80
2018-09-13T01:24:56.312Z,11.27
2018-09-13T01:27:26.337Z,11.23
2018-09-13T01:29:55.027Z,10.47
2018-09-13T01:32:23.611Z,10.37
2018-09-13T01:34:52.728Z,11.00
2018-09-13T01:37:21.196Z,11.20
2018-09-13T01:39:49.772Z,11.97
2018-09-13T01:42:18.260Z,11.00
2018-09-13T01:44:46.767Z,10.13
2018-09-13T01:47:15.236Z,12.30
2018-09-13T01:49:43.754Z,13.17
2018-09-13T01:52:12.210Z,12.07
2018-09-13T01:54:40.693Z,14.40
2018-09-13T01:57:09.214Z,12.87
2018-09-13T01:59:37.716Z,12.60
2018-09-13T02:02:06.216Z,10.60
2018-09-13T02:04:34.700Z,15.23
2018-09-13T02:07:03.204Z,12.77
2018-09-13T02:09:31.756Z,11.40
2018-09-13T02:12:00.248Z,14.93
2018-09-13T02:14:28.704Z,12.60
2018-09-13T02:16:57.508Z,11.17
2018-09-13T02:19:25.989Z,11.23
2018-09-13T02:21:54.451Z,12.37
2018-09-13T02:24:22.928Z,11.70
2018-09-13T02:26:51.440Z,12.03
2018-09-13T02:29:19.964Z,10.23
2018-09-13T02:31:48.440Z,14.07
2018-09-13T02:34:16.894Z,12.70
2018-09-13T02:36:45.499Z,10.07
2018-09-13T02:39:15.733Z,11.37
2018-09-13T02:41:44.276Z,11.37
2018-09-13T02:44:12.745Z,10.40
2018-09-13T02:46:41.309Z,9.87
2018-09-13T02:49:10.426Z,13.27
2018-09-13T02:51:38.868Z,10.70
2018-09-13T02:54:07.354Z,12.90
2018-09-13T02:56:35.893Z,11.73
2018-09-13T02:59:04.356Z,11.10
2018-09-13T03:01:32.828Z,10.70
2018-09-13T03:04:01.317Z,11.57
2018-09-13T03:06:29.856Z,11.60
2018-09-13T03:08:58.335Z,13.37
2018-09-13T03:11:27.137Z,11.73
2018-09-13T03:13:55.731Z,12.87
2018-09-13T03:16:24.183Z,10.97
2018-09-13T03:18:52.729Z,10.73
2018-09-13T03:21:21.188Z,10.07
2018-09-13T03:23:49.770Z,11.73
2018-09-13T03:26:18.251Z,11.77
2018-09-13T03:28:46.791Z,11.90
2018-09-13T03:31:15.364Z,9.77
2018-09-13T03:33:43.947Z,11.30
2018-09-13T03:36:12.546Z,10.27
2018-09-13T03:38:41.116Z,12.67
2018-09-13T03:41:09.656Z,10.70
2018-09-13T03:43:38.925Z,12.57
2018-09-13T03:46:07.716Z,10.67
2018-09-13T03:48:36.290Z,10.33
2018-09-13T03:51:04.808Z,11.13
2018-09-13T03:53:33.394Z,11.10
2018-09-13T03:56:01.979Z,9.83
2018-09-13T03:58:30.493Z,9.80
2018-09-13T04:00:59.107Z,12.50
2018-09-13T04:03:27.788Z,10.90
2018-09-13T04:05:56.208Z,10.37
2018-09-13T04:08:24.854Z,9.70
2018-09-13T04:10:53.383Z,12.27
2018-09-13T04:13:21.872Z,11.33
2018-09-13T04:15:50.955Z,12.70
2018-09-13T04:18:19.441Z,9.70
2018-09-13T04:20:47.968Z,10.00
2018-09-13T04:23:16.521Z,9.87
2018-09-13T04:25:47.043Z,12.37
2018-09-13T04:28:19.370Z,11.20
2018-09-13T04:30:47.868Z,12.30
2018-09-13T04:33:16.469Z,11.07
2018-09-13T04:35:45.043Z,13.10
2018-09-13T04:38:14.552Z,8.27
2018-09-13T04:40:43.032Z,15.10
2018-09-13T04:43:11.539Z,8.93
2018-09-13T04:45:43.300Z,11.90
2018-09-13T04:48:11.832Z,13.53
2018-09-13T04:50:40.336Z,11.00
2018-09-13T04:53:10.866Z,10.60
2018-09-13T04:55:39.364Z,10.43
2018-09-13T04:58:07.863Z,12.40
2018-09-13T05:00:36.373Z,9.00
2018-09-13T05:03:05.080Z,9.60
2018-09-13T05:05:33.560Z,10.73
2018-09-13T05:08:02.032Z,9.20
2018-09-13T05:10:30.544Z,9.80
2018-09-13T05:13:00.065Z,10.83
2018-09-13T05:15:29.766Z,11.50
2018-09-13T05:17:58.288Z,10.00
2018-09-13T05:20:26.767Z,12.33
2018-09-13T05:22:55.304Z,10.37
2018-09-13T05:25:24.800Z,12.70
2018-09-13T05:27:54.331Z,11.90
2018-09-13T05:30:22.819Z,9.47
2018-09-13T05:32:51.323Z,11.50
2018-09-13T05:35:19.812Z,13.47
2018-09-13T05:37:48.318Z,9.07
2018-09-13T05:40:16.876Z,9.67
2018-09-13T05:42:45.348Z,9.53
2018-09-13T05:45:13.816Z,11.27
2018-09-13T05:47:42.331Z,11.07
2018-09-13T05:50:10.815Z,8.50
2018-09-13T05:52:39.299Z,15.97
2018-09-13T05:55:07.857Z,13.67
2018-09-13T05:57:36.334Z,11.40
2018-09-13T06:00:05.062Z,11.00
2018-09-13T06:02:33.568Z,13.10
2018-09-13T06:05:02.112Z,14.00
2018-09-13T06:07:30.680Z,11.53
2018-09-13T06:10:00.288Z,11.53
2018-09-13T06:12:28.766Z,14.60
2018-09-13T06:14:58.315Z,9.73
2018-09-13T06:17:26.776Z,10.07
2018-09-13T06:19:55.261Z,8.70
2018-09-13T06:22:23.765Z,10.83
2018-09-13T06:24:52.297Z,8.70
2018-09-13T06:27:20.784Z,9.40
2018-09-13T06:29:49.274Z,14.77
2018-09-13T06:32:17.760Z,9.57
2018-09-13T06:34:46.303Z,11.13
2018-09-13T06:37:14.835Z,9.43
2018-09-13T06:39:43.320Z,8.63
2018-09-13T06:42:12.839Z,12.57
2018-09-13T06:44:41.396Z,10.70
2018-09-13T06:47:09.877Z,10.90
2018-09-13T06:49:38.394Z,9.23
2018-09-13T06:52:06.865Z,10.60
2018-09-13T06:54:36.799Z,12.80
2018-09-13T06:57:06.649Z,10.70
2018-09-13T06:59:36.349Z,14.77
2018-09-13T07:02:04.893Z,18.70
2018-09-13T07:04:33.404Z,38.90
2018-09-13T07:07:01.923Z,34.60
2018-09-13T07:09:30.401Z,20.30
2018-09-13T07:11:58.909Z,18.33
2018-09-13T07:14:28.382Z,17.27
2018-09-13T07:16:58.056Z,16.37
2018-09-13T07:19:26.535Z,17.20
2018-09-13T07:21:55.021Z,14.13
2018-09-13T07:24:23.492Z,11.50
2018-09-13T07:26:53.036Z,15.57
2018-09-13T07:29:22.556Z,13.90
2018-09-13T07:31:51.025Z,14.30
2018-09-13T07:34:19.525Z,13.63
2018-09-13T07:36:48.157Z,12.83
2018-09-13T07:39:16.676Z,11.10
2018-09-13T07:41:45.137Z,12.30
2018-09-13T07:44:13.638Z,11.33
2018-09-13T07:46:42.159Z,11.83
2018-09-13T07:49:10.702Z,15.37
2018-09-13T07:51:39.201Z,16.03
2018-09-13T07:54:07.700Z,17.17
2018-09-13T07:56:36.167Z,16.70
2018-09-13T07:59:05.820Z,11.37
2018-09-13T08:01:34.292Z,14.27
2018-09-13T08:04:02.796Z,16.33
2018-09-13T08:06:32.368Z,15.93
2018-09-13T08:09:01.927Z,10.83
2018-09-13T08:11:31.576Z,11.53
2018-09-13T08:14:00.053Z,13.23
2018-09-13T08:16:29.615Z,10.70
2018-09-13T08:18:58.122Z,19.80
2018-09-13T08:21:27.623Z,14.00
2018-09-13T08:23:57.126Z,14.23
2018-09-13T08:26:26.231Z,12.43
2018-09-13T08:28:54.871Z,11.07
2018-09-13T08:31:23.333Z,16.13
2018-09-13T08:33:51.883Z,11.13
2018-09-13T08:36:20.370Z,12.80
2018-09-13T08:38:48.860Z,15.00
2018-09-13T08:41:17.395Z,14.97
2018-09-13T08:43:45.874Z,14.03
2018-09-13T08:46:14.419Z,11.00
2018-09-13T08:48:42.887Z,12.97
2018-09-13T08:51:11.361Z,12.87
2018-09-13T08:53:39.848Z,9.47
2018-09-13T08:56:08.451Z,11.57
2018-09-13T08:58:36.979Z,12.67
2018-09-13T09:01:07.477Z,14.07
2018-09-13T09:03:36.051Z,10.90
2018-09-13T09:06:04.736Z,11.13
2018-09-13T09:08:47.637Z,10.47
2018-09-13T09:11:16.128Z,13.43
2018-09-13T09:13:44.625Z,8.63
2018-09-13T09:16:13.106Z,13.27
2018-09-13T09:18:41.663Z,9.60
2018-09-13T09:21:10.074Z,9.30
2018-09-13T09:23:38.549Z,8.83
2018-09-13T09:26:07.033Z,14.33
2018-09-13T09:28:36.511Z,14.53
2018-09-13T09:31:05.056Z,9.93
2018-09-13T09:33:33.522Z,19.07
2018-09-13T09:36:02.066Z,8.93
2018-09-13T09:38:30.575Z,10.67
2018-09-13T09:41:00.066Z,9.17
2018-09-13T09:43:29.636Z,11.83
2018-09-13T09:45:58.145Z,12.33
2018-09-13T09:48:27.844Z,13.80
2018-09-13T09:50:56.539Z,11.70
2018-09-13T09:53:25.020Z,12.67
2018-09-13T09:55:53.496Z,15.13
2018-09-13T09:58:22.112Z,15.53
2018-09-13T10:00:56.125Z,13.23
2018-09-13T10:03:24.609Z,9.03
2018-09-13T10:05:53.141Z,12.53
2018-09-13T10:08:21.670Z,11.97
2018-09-13T10:10:50.193Z,14.10
2018-09-13T10:13:18.700Z,11.43
2018-09-13T10:15:52.504Z,15.23
2018-09-13T10:18:26.374Z,10.37
2018-09-13T10:21:00.308Z,8.50
2018-09-13T10:23:34.375Z,9.63
2018-09-13T10:26:08.735Z,9.57
2018-09-13T10:28:46.417Z,13.63
2018-09-13T10:31:20.348Z,18.30
2018-09-13T10:33:54.330Z,10.40
2018-09-13T10:36:31.724Z,13.37
2018-09-13T10:39:05.632Z,11.20
2018-09-13T10:41:39.652Z,9.87
2018-09-13T10:44:13.536Z,17.00
2018-09-13T10:46:41.984Z,12.80
2018-09-13T10:49:16.079Z,18.00
2018-09-13T10:51:50.136Z,21.57
2018-09-13T10:54:24.151Z,16.63
2018-09-13T10:56:52.752Z,15.23
2018-09-13T10:59:21.373Z,10.87
2018-09-13T11:01:49.880Z,10.07
2018-09-13T11:04:18.387Z,16.33
2018-09-13T11:06:46.851Z,14.43
2018-09-13T11:09:15.419Z,12.57
2018-09-13T11:11:44.167Z,10.03
2018-09-13T11:14:17.773Z,14.87
2018-09-13T11:16:46.253Z,10.23
2018-09-13T11:19:14.712Z,14.90
2018-09-13T11:21:43.221Z,37.70
2018-09-13T11:24:11.678Z,37.57
2018-09-13T11:26:40.172Z,25.97
2018-09-13T11:29:08.644Z,12.73
2018-09-13T11:31:37.092Z,15.47
2018-09-13T11:34:05.668Z,15.23
2018-09-13T11:36:34.152Z,10.83
2018-09-13T11:39:02.680Z,9.20
2018-09-13T11:41:31.141Z,11.20
2018-09-13T11:43:59.622Z,22.30
2018-09-13T11:46:28.119Z,35.87
2018-09-13T11:48:56.639Z,24.23
2018-09-13T11:51:25.109Z,73.57
2018-09-13T11:53:53.693Z,22.70
2018-09-13T11:56:22.367Z,16.70
2018-09-13T11:58:50.862Z,13.47
2018-09-13T12:01:19.393Z,13.57
2018-09-13T12:03:47.983Z,13.20
2018-09-13T12:06:16.580Z,13.37
2018-09-13T12:08:45.084Z,10.80
2018-09-13T12:11:13.557Z,12.73
2018-09-13T12:13:42.096Z,11.73
2018-09-13T12:16:10.571Z,11.20
2018-09-13T12:18:39.097Z,12.27
2018-09-13T12:21:07.569Z,15.50
2018-09-13T12:23:36.069Z,13.07
2018-09-13T12:26:04.748Z,9.97
2018-09-13T12:28:33.220Z,11.00
2018-09-13T12:31:01.684Z,12.50
2018-09-13T12:33:30.299Z,11.17
2018-09-13T12:35:58.764Z,20.00
2018-09-13T12:38:27.259Z,11.77
2018-09-13T12:40:55.801Z,13.27
2018-09-13T12:43:24.301Z,10.20
2018-09-13T12:45:52.837Z,12.10
2018-09-13T12:48:21.345Z,10.57
2018-09-13T12:50:50.762Z,14.50
2018-09-13T12:53:19.214Z,29.63
2018-09-13T12:55:54.309Z,110.40
2018-09-13T12:58:23.754Z,91.83
2018-09-13T13:00:52.287Z,39.23
2018-09-13T13:03:20.843Z,19.23
2018-09-13T13:05:49.924Z,18.13
2018-09-13T13:08:18.717Z,23.87
2018-09-13T13:10:47.208Z,17.83
2018-09-13T13:13:15.704Z,14.57
2018-09-13T13:15:44.197Z,22.00
2018-09-13T13:18:12.695Z,13.83
2018-09-13T13:20:41.211Z,17.17
2018-09-13T13:23:10.574Z,10.97
2018-09-13T13:25:39.076Z,9.93
2018-09-13T13:28:07.528Z,88.93
2018-09-13T13:30:36.021Z,62.00
2018-09-13T13:33:04.620Z,26.60
2018-09-13T13:35:33.133Z,20.33
2018-09-13T13:38:01.597Z,11.57
2018-09-13T13:40:30.125Z,18.43
2018-09-13T13:42:58.600Z,8.70
2018-09-13T13:45:27.106Z,16.43
2018-09-13T13:47:55.593Z,11.90
2018-09-13T13:50:24.056Z,13.20
2018-09-13T13:52:52.527Z,6.63
2018-09-13T13:55:21.009Z,34.83
2018-09-13T13:57:49.469Z,14.07
2018-09-13T14:00:18.096Z,16.20
2018-09-13T14:02:47.592Z,14.50
2018-09-13T14:05:16.105Z,9.97
2018-09-13T14:07:44.567Z,10.67
2018-09-13T14:10:13.131Z,8.90
2018-09-13T14:12:41.586Z,11.47
2018-09-13T14:15:10.065Z,12.00
2018-09-13T14:17:38.556Z,15.50
2018-09-13T14:20:07.101Z,20.37
2018-09-13T14:22:36.120Z,7.03
2018-09-13T14:25:04.765Z,9.03
2018-09-13T14:27:33.232Z,7.50
2018-09-13T14:30:01.705Z,10.43
2018-09-13T14:32:30.312Z,9.13
2018-09-13T14:34:58.769Z,8.83
2018-09-13T14:37:27.776Z,9.07
2018-09-13T14:39:56.320Z,10.60
2018-09-13T14:42:24.752Z,11.47
2018-09-13T14:44:53.300Z,11.23
2018-09-13T14:47:21.807Z,10.07
2018-09-13T14:49:50.323Z,20.40
2018-09-13T14:52:18.809Z,11.70
2018-09-13T14:54:47.275Z,11.47
2018-09-13T14:57:15.793Z,12.67
2018-09-13T14:59:44.260Z,15.03
2018-09-13T15:02:12.735Z,11.87
2018-09-13T15:04:41.330Z,10.33
2018-09-13T15:07:09.843Z,172.13
2018-09-13T15:09:39.237Z,112.23
2018-09-13T15:12:07.747Z,140.30
2018-09-13T15:14:36.310Z,52.07
2018-09-13T15:17:04.896Z,59.37
2018-09-13T15:19:33.711Z,10.93
2018-09-13T15:22:02.239Z,8.53
2018-09-13T15:24:30.758Z,9.47
2018-09-13T15:26:59.176Z,14.37
2018-09-13T15:29:27.824Z,14.40
2018-09-13T15:31:56.416Z,15.03
2018-09-13T15:35:49.313Z,15.77
2018-09-13T15:38:17.828Z,14.33
2018-09-13T15:40:46.296Z,11.27
2018-09-13T15:43:14.818Z,11.87
2018-09-13T15:45:43.278Z,12.33
2018-09-13T15:48:11.797Z,16.97
2018-09-13T15:50:40.244Z,12.03
2018-09-13T15:53:09.236Z,14.70
2018-09-13T15:55:37.684Z,17.30
2018-09-13T15:58:06.421Z,13.60
2018-09-13T16:00:35.246Z,12.00
2018-09-13T16:03:03.925Z,12.83
2018-09-13T16:05:32.604Z,8.93
2018-09-13T16:08:01.047Z,7.37
2018-09-13T16:10:29.653Z,9.37
2018-09-13T16:12:58.265Z,10.23
2018-09-13T16:15:26.596Z,11.10
2018-09-13T16:17:55.097Z,9.47
2018-09-13T16:20:26.227Z,8.13
2018-09-13T16:22:52.032Z,9.73
2018-09-13T16:25:20.493Z,9.47
2018-09-13T16:27:48.999Z,8.17
2018-09-13T16:30:17.444Z,10.70
2018-09-13T16:32:45.943Z,9.17
2018-09-13T16:35:14.665Z,12.30
2018-09-13T16:37:50.517Z,9.60
2018-09-13T16:40:24.534Z,8.90
2018-09-13T16:42:59.164Z,262.40
2018-09-13T16:45:29.057Z,244.17
2018-09-13T16:47:58.983Z,125.93
2018-09-13T16:50:27.656Z,54.90
2018-09-13T16:52:56.186Z,26.83
2018-09-13T16:55:24.653Z,142.00
2018-09-13T16:57:53.155Z,178.27
2018-09-13T17:00:23.045Z,21.77
2018-09-13T17:02:51.711Z,18.27
2018-09-13T17:05:20.201Z,16.57
2018-09-13T17:07:48.701Z,14.70
2018-09-13T17:10:17.216Z,15.67
2018-09-13T17:12:46.051Z,12.23
2018-09-13T17:15:14.517Z,14.23
2018-09-13T17:17:43.104Z,14.90
2018-09-13T17:20:11.605Z,11.80
2018-09-13T17:22:40.285Z,16.40
2018-09-13T17:25:08.821Z,11.87
2018-09-13T17:27:37.304Z,14.37
2018-09-13T17:30:05.805Z,12.20
2018-09-13T17:32:34.336Z,11.67
2018-09-13T17:35:02.803Z,11.77
2018-09-13T17:37:31.283Z,17.87
2018-09-13T17:39:59.737Z,12.93
2018-09-13T17:42:28.205Z,13.40
2018-09-13T17:44:56.666Z,11.83
2018-09-13T17:47:25.121Z,12.37
2018-09-13T17:49:53.716Z,13.10
2018-09-13T17:52:22.156Z,12.67
2018-09-13T17:54:50.633Z,16.97
2018-09-13T17:57:20.217Z,13.90
2018-09-13T17:59:48.720Z,12.90
2018-09-13T18:02:17.189Z,14.23
2018-09-13T18:04:45.665Z,14.40
2018-09-13T18:07:14.136Z,15.27
2018-09-13T18:09:42.678Z,16.43
2018-09-13T18:12:11.224Z,13.87
2018-09-13T18:14:39.727Z,15.70
2018-09-13T18:17:08.278Z,14.30
2018-09-13T18:19:36.751Z,14.87
2018-09-13T18:22:05.373Z,19.13
2018-09-13T18:24:33.911Z,18.47
2018-09-13T18:27:02.383Z,17.50
2018-09-13T18:29:30.857Z,19.77
2018-09-13T18:31:59.334Z,15.53
2018-09-13T18:34:27.870Z,19.03
2018-09-13T18:36:56.315Z,21.87
2018-09-13T18:39:24.800Z,13.70
2018-09-13T18:41:53.277Z,18.73
2018-09-13T18:44:21.754Z,17.70
2018-09-13T18:46:50.243Z,16.93
2018-09-13T18:49:18.728Z,19.63
2018-09-13T18:51:47.204Z,18.80
2018-09-13T18:54:15.756Z,18.77
2018-09-13T18:56:44.184Z,19.20
2018-09-13T18:59:12.653Z,14.40
2018-09-13T19:01:41.112Z,17.50
2018-09-13T19:04:09.570Z,16.90
2018-09-13T19:06:38.061Z,20.73
2018-09-13T19:09:08.063Z,15.50
2018-09-13T19:11:36.889Z,15.47
2018-09-13T19:14:05.531Z,18.33
2018-09-13T19:16:34.160Z,16.53
2018-09-13T19:19:02.672Z,16.57
2018-09-13T19:21:31.328Z,15.63
2018-09-13T19:24:00.128Z,16.93
2018-09-13T19:26:28.623Z,18.10
2018-09-13T19:28:57.076Z,21.43
2018-09-13T19:31:25.564Z,17.60
2018-09-13T19:33:54.047Z,20.90
2018-09-13T19:36:22.544Z,22.43
2018-09-13T19:38:51.050Z,21.37
2018-09-13T19:41:19.575Z,23.90
2018-09-13T19:43:48.076Z,27.83
2018-09-13T19:46:16.787Z,22.57
2018-09-13T19:48:45.464Z,24.67
2018-09-13T19:51:14.092Z,22.93
2018-09-13T19:53:42.435Z,23.13
2018-09-13T19:56:10.936Z,23.77
2018-09-13T19:58:39.412Z,28.73
2018-09-13T20:01:08.060Z,20.13
2018-09-13T20:03:38.232Z,19.40
2018-09-13T20:06:06.705Z,18.57
2018-09-13T20:08:35.193Z,19.77
2018-09-13T20:11:03.678Z,17.77
2018-09-13T20:13:32.169Z,21.73
2018-09-13T20:16:00.649Z,15.87
2018-09-13T20:18:29.460Z,19.00
2018-09-13T20:20:57.836Z,17.77
2018-09-13T20:23:26.344Z,15.83
2018-09-13T20:25:54.928Z,15.73
2018-09-13T20:28:23.493Z,16.17
2018-09-13T20:30:51.968Z,19.37
2018-09-13T20:33:20.460Z,16.90
2018-09-13T20:35:49.659Z,16.90
2018-09-13T20:38:18.131Z,19.73
2018-09-13T20:40:46.676Z,33.07
2018-09-13T20:43:15.137Z,23.20
2018-09-13T20:45:43.651Z,27.87
2018-09-13T20:48:12.105Z,23.13
2018-09-13T20:50:43.821Z,18.70
2018-09-13T20:53:13.178Z,20.97
2018-09-13T20:55:42.553Z,22.03
2018-09-13T20:58:11.750Z,17.57
2018-09-13T21:00:41.319Z,19.77
2018-09-13T21:03:10.169Z,19.10
2018-09-13T21:05:39.137Z,17.07
2018-09-13T21:08:07.637Z,18.87
2018-09-13T21:10:36.393Z,16.93
2018-09-13T21:13:04.941Z,16.00
2018-09-13T21:15:34.160Z,15.30
2018-09-13T21:18:02.700Z,16.03
2018-09-13T21:20:31.244Z,16.70
2018-09-13T21:22:59.770Z,16.00
2018-09-13T21:25:28.257Z,19.30
2018-09-13T21:27:57.097Z,20.97
2018-09-13T21:30:25.672Z,18.30
2018-09-13T21:32:54.231Z,20.00
2018-09-13T21:35:22.665Z,22.07
2018-09-13T21:37:51.141Z,20.03
2018-09-13T21:40:19.613Z,21.50
2018-09-13T21:42:48.107Z,19.50
2018-09-13T21:45:16.572Z,19.80
2018-09-13T21:47:45.041Z,24.47
2018-09-13T21:50:13.576Z,27.63
2018-09-13T21:52:42.040Z,25.97
2018-09-13T21:55:10.520Z,28.03
2018-09-13T21:57:38.988Z,22.00
2018-09-13T22:00:08.561Z,29.77
2018-09-13T22:02:37.097Z,27.07
2018-09-13T22:05:05.556Z,26.40
2018-09-13T22:07:34.250Z,26.90
2018-09-13T22:10:02.726Z,25.33
2018-09-13T22:12:31.247Z,24.07
2018-09-13T22:14:59.688Z,19.83
2018-09-13T22:17:28.155Z,22.97
2018-09-13T22:19:56.640Z,18.83
2018-09-13T22:22:25.109Z,18.93
2018-09-13T22:24:53.617Z,19.63
2018-09-13T22:27:22.089Z,18.90
2018-09-13T22:29:50.584Z,19.37
2018-09-13T22:32:19.053Z,19.97
2018-09-13T22:34:47.736Z,19.13
2018-09-13T22:37:16.220Z,16.47
2018-09-13T22:39:44.739Z,20.40
2018-09-13T22:42:13.272Z,18.37
2018-09-13T22:44:42.791Z,16.83
2018-09-13T22:48:25.882Z,17.73
2018-09-13T22:50:54.416Z,17.03
2018-09-13T22:53:23.015Z,21.00
2018-09-13T22:55:51.465Z,31.27
2018-09-13T22:58:19.968Z,34.33
2018-09-13T23:00:48.803Z,33.73
2018-09-13T23:03:17.296Z,29.03
2018-09-13T23:05:45.763Z,20.67
2018-09-13T23:08:14.821Z,22.80
2018-09-13T23:10:43.303Z,18.73
2018-09-13T23:13:11.792Z,18.90
2018-09-13T23:15:40.292Z,12.97
2018-09-13T23:18:08.786Z,17.00
2018-09-13T23:20:37.269Z,12.90
2018-09-13T23:23:05.840Z,12.23
2018-09-13T23:25:34.339Z,12.27
2018-09-13T23:28:02.832Z,14.33
2018-09-13T23:30:31.525Z,15.00
2018-09-13T23:33:00.009Z,17.63
2018-09-13T23:35:29.565Z,18.80
2018-09-13T23:37:59.120Z,12.03
2018-09-13T23:40:27.942Z,9.90
2018-09-13T23:42:57.072Z,15.87
2018-09-13T23:45:25.568Z,10.13
2018-09-13T23:47:54.063Z,13.27
2018-09-13T23:50:22.933Z,14.07
2018-09-13T23:52:51.498Z,16.20
2018-09-13T23:55:20.029Z,9.33
2018-09-13T23:57:48.488Z,8.97
